sensor_id;sensor_type;location;lat;lon;timestamp;pressure;altitude;pressure_sealevel;temperature;humidity
65880;BME280;52661;51.364;6.054;2023-12-28T00:01:10;100629.84;;;10.00;100.00
65880;BME280;52661;51.364;6.054;2023-12-28T00:03:35;100632.56;;;9.96;100.00
65880;BME280;52661;51.364;6.054;2023-12-28T00:06:01;100637.22;;;9.99;100.00
65880;BME280;52661;51.364;6.054;2023-12-28T00:08:26;100629.06;;;9.99;100.00
65880;BME280;52661;51.364;6.054;2023-12-28T00:10:51;100642.63;;;9.99;100.00
65880;BME280;52661;51.364;6.054;2023-12-28T00:13:17;100657.75;;;10.00;100.00
65880;BME280;52661;51.364;6.054;2023-12-28T00:15:42;100644.56;;;10.02;100.00
65880;BME280;52661;51.364;6.054;2023-12-28T00:18:07;100639.56;;;10.04;100.00
65880;BME280;52661;51.364;6.054;2023-12-28T00:20:33;100658.91;;;10.03;100.00
65880;BME280;52661;51.364;6.054;2023-12-28T00:22:58;100649.63;;;10.04;100.00
65880;BME280;52661;51.364;6.054;2023-12-28T00:25:24;100643.41;;;10.03;100.00
65880;BME280;52661;51.364;6.054;2023-12-28T00:27:49;100676.38;;;10.09;100.00
65880;BME280;52661;51.364;6.054;2023-12-28T00:30:15;100674.03;;;10.07;100.00
65880;BME280;52661;51.364;6.054;2023-12-28T00:32:45;100675.97;;;10.10;100.00
65880;BME280;52661;51.364;6.054;2023-12-28T00:35:11;100673.25;;;10.10;100.00
65880;BME280;52661;51.364;6.054;2023-12-28T00:37:36;100666.25;;;10.06;100.00
65880;BME280;52661;51.364;6.054;2023-12-28T00:40:02;100676.38;;;10.12;100.00
65880;BME280;52661;51.364;6.054;2023-12-28T00:42:28;100681.38;;;10.10;100.00
65880;BME280;52661;51.364;6.054;2023-12-28T00:44:53;100687.59;;;10.11;100.00
65880;BME280;52661;51.364;6.054;2023-12-28T00:47:19;100694.56;;;10.12;100.00
65880;BME280;52661;51.364;6.054;2023-12-28T00:49:44;100691.50;;;10.17;100.00
65880;BME280;52661;51.364;6.054;2023-12-28T00:52:09;100698.09;;;10.16;100.00
65880;BME280;52661;51.364;6.054;2023-12-28T00:54:36;100691.84;;;10.12;100.00
65880;BME280;52661;51.364;6.054;2023-12-28T00:57:03;100691.84;;;10.12;100.00
65880;BME280;52661;51.364;6.054;2023-12-28T00:59:28;100694.59;;;10.15;100.00
65880;BME280;52661;51.364;6.054;2023-12-28T01:01:55;100687.22;;;10.12;100.00
65880;BME280;52661;51.364;6.054;2023-12-28T01:04:20;100683.72;;;10.12;100.00
65880;BME280;52661;51.364;6.054;2023-12-28T01:06:48;100688.78;;;10.17;100.00
65880;BME280;52661;51.364;6.054;2023-12-28T01:09:14;100691.91;;;10.15;100.00
65880;BME280;52661;51.364;6.054;2023-12-28T01:11:39;100694.22;;;10.17;100.00
65880;BME280;52661;51.364;6.054;2023-12-28T01:14:05;100698.47;;;10.14;100.00
65880;BME280;52661;51.364;6.054;2023-12-28T01:16:30;100683.72;;;10.12;100.00
65880;BME280;52661;51.364;6.054;2023-12-28T01:18:55;100682.56;;;10.13;100.00
65880;BME280;52661;51.364;6.054;2023-12-28T01:21:21;100677.53;;;10.11;100.00
65880;BME280;52661;51.364;6.054;2023-12-28T01:23:46;100691.09;;;10.11;100.00
65880;BME280;52661;51.364;6.054;2023-12-28T01:26:15;100691.44;;;10.06;100.00
65880;BME280;52661;51.364;6.054;2023-12-28T01:28:41;100688.38;;;10.08;100.00
65880;BME280;52661;51.364;6.054;2023-12-28T01:31:07;100710.03;;;10.01;100.00
65880;BME280;52661;51.364;6.054;2023-12-28T01:33:32;100706.94;;;10.02;100.00
65880;BME280;52661;51.364;6.054;2023-12-28T01:35:58;100703.06;;;10.03;100.00
65880;BME280;52661;51.364;6.054;2023-12-28T01:38:23;100704.63;;;10.01;100.00
65880;BME280;52661;51.364;6.054;2023-12-28T01:40:48;100702.28;;;10.03;100.00
65880;BME280;52661;51.364;6.054;2023-12-28T01:43:14;100714.31;;;9.98;100.00
65880;BME280;52661;51.364;6.054;2023-12-28T01:45:39;100713.91;;;10.00;100.00
65880;BME280;52661;51.364;6.054;2023-12-28T01:48:05;100716.63;;;10.00;100.00
65880;BME280;52661;51.364;6.054;2023-12-28T01:50:30;100724.38;;;10.01;100.00
65880;BME280;52661;51.364;6.054;2023-12-28T01:52:58;100723.97;;;9.99;100.00
65880;BME280;52661;51.364;6.054;2023-12-28T01:55:26;100734.44;;;9.97;100.00
65880;BME280;52661;51.364;6.054;2023-12-28T01:57:54;100745.28;;;9.97;100.00
65880;BME280;52661;51.364;6.054;2023-12-28T02:00:21;100734.81;;;9.92;100.00
65880;BME280;52661;51.364;6.054;2023-12-28T02:02:47;100737.53;;;9.96;100.00
65880;BME280;52661;51.364;6.054;2023-12-28T02:05:14;100723.19;;;9.95;100.00
65880;BME280;52661;51.364;6.054;2023-12-28T02:07:40;100730.94;;;9.89;100.00
65880;BME280;52661;51.364;6.054;2023-12-28T02:10:06;100735.22;;;9.94;100.00
65880;BME280;52661;51.364;6.054;2023-12-28T02:12:32;100742.94;;;9.88;100.00
65880;BME280;52661;51.364;6.054;2023-12-28T02:14:58;100734.78;;;9.88;100.00
65880;BME280;52661;51.364;6.054;2023-12-28T02:17:33;100734.41;;;9.90;100.00
65880;BME280;52661;51.364;6.054;2023-12-28T02:20:00;100727.44;;;9.93;100.00
65880;BME280;52661;51.364;6.054;2023-12-28T02:22:27;100729.78;;;9.94;100.00
65880;BME280;52661;51.364;6.054;2023-12-28T02:24:58;100725.91;;;9.95;100.00
65880;BME280;52661;51.364;6.054;2023-12-28T02:27:23;100722.44;;;9.95;100.00
65880;BME280;52661;51.364;6.054;2023-12-28T02:29:48;100730.16;;;9.93;100.00
65880;BME280;52661;51.364;6.054;2023-12-28T02:32:16;100722.81;;;9.93;100.00
65880;BME280;52661;51.364;6.054;2023-12-28T02:34:44;100717.38;;;9.93;100.00
65880;BME280;52661;51.364;6.054;2023-12-28T02:37:12;100732.88;;;9.93;100.00
65880;BME280;52661;51.364;6.054;2023-12-28T02:39:42;100724.75;;;9.93;100.00
65880;BME280;52661;51.364;6.054;2023-12-28T02:42:09;100706.91;;;9.92;100.00
65880;BME280;52661;51.364;6.054;2023-12-28T02:44:34;100739.84;;;9.90;100.00
65880;BME280;52661;51.364;6.054;2023-12-28T02:47:00;100722.78;;;9.89;100.00
65880;BME280;52661;51.364;6.054;2023-12-28T02:49:25;100727.84;;;9.91;100.00
65880;BME280;52661;51.364;6.054;2023-12-28T02:51:50;100724.72;;;9.89;100.00
65880;BME280;52661;51.364;6.054;2023-12-28T02:54:16;100722.44;;;9.91;100.00
65880;BME280;52661;51.364;6.054;2023-12-28T02:56:41;100722.44;;;9.91;100.00
65880;BME280;52661;51.364;6.054;2023-12-28T02:59:06;100727.44;;;9.93;100.00
65880;BME280;52661;51.364;6.054;2023-12-28T03:01:31;100729.38;;;9.92;100.00
65880;BME280;52661;51.364;6.054;2023-12-28T03:03:57;100721.25;;;9.92;100.00
65880;BME280;52661;51.364;6.054;2023-12-28T03:06:23;100715.44;;;9.90;100.00
65880;BME280;52661;51.364;6.054;2023-12-28T03:08:48;100703.03;;;9.89;100.00
65880;BME280;52661;51.364;6.054;2023-12-28T03:11:14;100706.53;;;9.89;100.00
65880;BME280;52661;51.364;6.054;2023-12-28T03:13:39;100699.16;;;9.83;100.00
65880;BME280;52661;51.364;6.054;2023-12-28T03:16:05;100691.03;;;9.86;100.00
65880;BME280;52661;51.364;6.054;2023-12-28T03:18:30;100708.47;;;9.89;100.00
65880;BME280;52661;51.364;6.054;2023-12-28T03:20:56;100694.13;;;9.92;100.00
65880;BME280;52661;51.364;6.054;2023-12-28T03:23:22;100700.75;;;9.91;100.00
65880;BME280;52661;51.364;6.054;2023-12-28T03:25:47;100713.53;;;9.94;100.00
65880;BME280;52661;51.364;6.054;2023-12-28T03:28:12;100703.47;;;9.95;100.00
65880;BME280;52661;51.364;6.054;2023-12-28T03:30:38;100694.53;;;9.94;100.00
65880;BME280;52661;51.364;6.054;2023-12-28T03:33:03;100702.69;;;9.98;100.00
65880;BME280;52661;51.364;6.054;2023-12-28T03:35:28;100705.00;;;9.96;100.00
65880;BME280;52661;51.364;6.054;2023-12-28T03:37:54;100702.28;;;9.96;100.00
65880;BME280;52661;51.364;6.054;2023-12-28T03:40:19;100709.25;;;9.97;100.00
65880;BME280;52661;51.364;6.054;2023-12-28T03:42:45;100709.63;;;9.99;100.00
65880;BME280;52661;51.364;6.054;2023-12-28T03:45:10;100729.03;;;10.01;100.00
65880;BME280;52661;51.364;6.054;2023-12-28T03:47:37;100724.00;;;10.06;100.00
65880;BME280;52661;51.364;6.054;2023-12-28T03:50:02;100720.88;;;10.01;100.00
65880;BME280;52661;51.364;6.054;2023-12-28T03:52:28;100725.53;;;10.00;100.00
65880;BME280;52661;51.364;6.054;2023-12-28T03:54:57;100719.31;;;9.96;100.00
65880;BME280;52661;51.364;6.054;2023-12-28T03:57:22;100724.38;;;9.98;100.00
65880;BME280;52661;51.364;6.054;2023-12-28T03:59:48;100716.25;;;9.98;100.00
65880;BME280;52661;51.364;6.054;2023-12-28T04:02:13;100705.41;;;9.98;100.00
65880;BME280;52661;51.364;6.054;2023-12-28T04:04:39;100728.25;;;10.04;100.00
65880;BME280;52661;51.364;6.054;2023-12-28T04:07:04;100705.41;;;10.01;100.00
65880;BME280;52661;51.364;6.054;2023-12-28T04:09:32;100722.03;;;10.00;100.00
65880;BME280;52661;51.364;6.054;2023-12-28T04:11:58;100719.31;;;9.96;100.00
65880;BME280;52661;51.364;6.054;2023-12-28T04:14:23;100723.19;;;9.99;100.00
65880;BME280;52661;51.364;6.054;2023-12-28T04:16:48;100718.19;;;9.97;100.00
65880;BME280;52661;51.364;6.054;2023-12-28T04:19:13;100716.25;;;10.01;100.00
65880;BME280;52661;51.364;6.054;2023-12-28T04:21:42;100718.97;;;10.01;100.00
65880;BME280;52661;51.364;6.054;2023-12-28T04:24:08;100724.38;;;10.01;100.00
65880;BME280;52661;51.364;6.054;2023-12-28T04:26:34;100719.34;;;10.03;100.00
65880;BME280;52661;51.364;6.054;2023-12-28T04:28:59;100718.19;;;10.01;100.00
65880;BME280;52661;51.364;6.054;2023-12-28T04:31:24;100727.09;;;9.98;100.00
65880;BME280;52661;51.364;6.054;2023-12-28T04:33:50;100724.38;;;10.01;100.00
65880;BME280;52661;51.364;6.054;2023-12-28T04:36:16;100722.81;;;10.00;100.00
65880;BME280;52661;51.364;6.054;2023-12-28T04:38:41;100722.81;;;10.00;100.00
65880;BME280;52661;51.364;6.054;2023-12-28T04:41:06;100714.31;;;10.02;100.00
65880;BME280;52661;51.364;6.054;2023-12-28T04:43:32;100715.84;;;10.06;100.00
65880;BME280;52661;51.364;6.054;2023-12-28T04:45:57;100705.00;;;10.06;100.00
65880;BME280;52661;51.364;6.054;2023-12-28T04:48:22;100705.78;;;10.10;100.00
65880;BME280;52661;51.364;6.054;2023-12-28T04:50:51;100693.38;;;10.09;100.00
65880;BME280;52661;51.364;6.054;2023-12-28T04:53:17;100697.66;;;10.10;100.00
65880;BME280;52661;51.364;6.054;2023-12-28T04:55:43;100694.16;;;10.10;100.00
65880;BME280;52661;51.364;6.054;2023-12-28T04:58:10;100693.00;;;10.11;100.00
65880;BME280;52661;51.364;6.054;2023-12-28T05:00:35;100700.00;;;10.08;100.00
65880;BME280;52661;51.364;6.054;2023-12-28T05:03:00;100708.91;;;10.09;100.00
65880;BME280;52661;51.364;6.054;2023-12-28T05:05:26;100702.72;;;10.08;100.00
65880;BME280;52661;51.364;6.054;2023-12-28T05:07:51;100704.63;;;10.04;100.00
65880;BME280;52661;51.364;6.054;2023-12-28T05:10:16;100709.28;;;10.11;100.00
65880;BME280;52661;51.364;6.054;2023-12-28T05:12:42;100704.28;;;10.13;100.00
65880;BME280;52661;51.364;6.054;2023-12-28T05:15:07;100703.09;;;10.10;100.00
65880;BME280;52661;51.364;6.054;2023-12-28T05:17:33;100703.06;;;10.07;100.00
65880;BME280;52661;51.364;6.054;2023-12-28T05:19:58;100717.03;;;10.09;100.00
65880;BME280;52661;51.364;6.054;2023-12-28T05:22:23;100717.41;;;10.07;100.00
65880;BME280;52661;51.364;6.054;2023-12-28T05:24:49;100717.41;;;10.07;100.00
65880;BME280;52661;51.364;6.054;2023-12-28T05:27:14;100727.13;;;10.08;100.00
65880;BME280;52661;51.364;6.054;2023-12-28T05:29:39;100734.47;;;10.04;100.00
65880;BME280;52661;51.364;6.054;2023-12-28T05:32:05;100726.69;;;10.03;100.00
65880;BME280;52661;51.364;6.054;2023-12-28T05:34:30;100739.09;;;10.04;100.00
65880;BME280;52661;51.364;6.054;2023-12-28T05:36:56;100746.88;;;10.05;100.00
65880;BME280;52661;51.364;6.054;2023-12-28T05:39:21;100729.81;;;10.05;100.00
65880;BME280;52661;51.364;6.054;2023-12-28T05:41:47;100738.72;;;10.05;100.00
65880;BME280;52661;51.364;6.054;2023-12-28T05:44:13;100749.56;;;10.05;100.00
65880;BME280;52661;51.364;6.054;2023-12-28T05:46:39;100752.66;;;10.07;100.00
65880;BME280;52661;51.364;6.054;2023-12-28T05:49:04;100757.72;;;10.09;100.00
65880;BME280;52661;51.364;6.054;2023-12-28T05:51:37;100753.84;;;10.13;100.00
65880;BME280;52661;51.364;6.054;2023-12-28T05:54:02;100743.75;;;10.14;100.00
65880;BME280;52661;51.364;6.054;2023-12-28T05:56:28;100743.38;;;10.12;100.00
65880;BME280;52661;51.364;6.054;2023-12-28T05:58:53;100748.81;;;10.12;100.00
65880;BME280;52661;51.364;6.054;2023-12-28T06:01:18;100746.88;;;10.12;100.00
65880;BME280;52661;51.364;6.054;2023-12-28T06:03:44;100759.25;;;10.10;100.00
65880;BME280;52661;51.364;6.054;2023-12-28T06:06:09;100755.78;;;10.13;100.00
65880;BME280;52661;51.364;6.054;2023-12-28T06:08:35;100746.09;;;10.12;100.00
65880;BME280;52661;51.364;6.054;2023-12-28T06:11:00;100746.47;;;10.07;100.00
65880;BME280;52661;51.364;6.054;2023-12-28T06:13:25;100748.78;;;10.05;100.00
65880;BME280;52661;51.364;6.054;2023-12-28T06:15:51;100748.41;;;10.06;100.00
65880;BME280;52661;51.364;6.054;2023-12-28T06:18:16;100745.69;;;10.03;100.00
65880;BME280;52661;51.364;6.054;2023-12-28T06:20:41;100762.38;;;10.08;100.00
65880;BME280;52661;51.364;6.054;2023-12-28T06:23:07;100761.97;;;10.10;100.00
65880;BME280;52661;51.364;6.054;2023-12-28T06:25:33;100761.97;;;10.13;100.00
65880;BME280;52661;51.364;6.054;2023-12-28T06:27:59;100760.50;;;10.19;100.00
65880;BME280;52661;51.364;6.054;2023-12-28T06:30:24;100772.84;;;10.17;100.00
65880;BME280;52661;51.364;6.054;2023-12-28T06:32:49;100770.16;;;10.17;100.00
65880;BME280;52661;51.364;6.054;2023-12-28T06:35:15;100771.34;;;10.19;100.00
65880;BME280;52661;51.364;6.054;2023-12-28T06:37:42;100775.22;;;10.22;100.00
65880;BME280;52661;51.364;6.054;2023-12-28T06:40:07;100771.72;;;10.21;100.00
65880;BME280;52661;51.364;6.054;2023-12-28T06:42:33;100789.56;;;10.22;100.00
65880;BME280;52661;51.364;6.054;2023-12-28T06:44:58;100774.84;;;10.27;100.00
65880;BME280;52661;51.364;6.054;2023-12-28T06:47:24;100782.59;;;10.28;100.00
65880;BME280;52661;51.364;6.054;2023-12-28T06:49:49;100776.00;;;10.26;100.00
65880;BME280;52661;51.364;6.054;2023-12-28T06:52:14;100771.72;;;10.28;100.00
65880;BME280;52661;51.364;6.054;2023-12-28T06:54:40;100772.13;;;10.27;100.00
65880;BME280;52661;51.364;6.054;2023-12-28T06:57:05;100770.16;;;10.24;100.00
65880;BME280;52661;51.364;6.054;2023-12-28T06:59:30;100778.72;;;10.26;100.00
65880;BME280;52661;51.364;6.054;2023-12-28T07:01:56;100779.84;;;10.25;100.00
65880;BME280;52661;51.364;6.054;2023-12-28T07:04:21;100779.09;;;10.28;100.00
65880;BME280;52661;51.364;6.054;2023-12-28T07:06:46;100782.56;;;10.25;100.00
65880;BME280;52661;51.364;6.054;2023-12-28T07:09:12;100786.06;;;10.29;100.00
65880;BME280;52661;51.364;6.054;2023-12-28T07:11:37;100782.19;;;10.26;100.00
65880;BME280;52661;51.364;6.054;2023-12-28T07:14:03;100801.97;;;10.23;100.00
65880;BME280;52661;51.364;6.054;2023-12-28T07:16:28;100786.84;;;10.26;100.00
65880;BME280;52661;51.364;6.054;2023-12-28T07:18:53;100798.47;;;10.26;100.00
65880;BME280;52661;51.364;6.054;2023-12-28T07:21:19;100806.63;;;10.26;100.00
65880;BME280;52661;51.364;6.054;2023-12-28T07:23:44;100798.84;;;10.25;100.00
65880;BME280;52661;51.364;6.054;2023-12-28T07:26:14;100806.97;;;10.21;100.00
65880;BME280;52661;51.364;6.054;2023-12-28T07:28:39;100819.00;;;10.27;100.00
65880;BME280;52661;51.364;6.054;2023-12-28T07:31:07;100823.28;;;10.28;100.00
65880;BME280;52661;51.364;6.054;2023-12-28T07:33:33;100824.06;;;10.29;100.00
65880;BME280;52661;51.364;6.054;2023-12-28T07:35:58;100833.75;;;10.30;100.00
65880;BME280;52661;51.364;6.054;2023-12-28T07:38:27;100819.78;;;10.28;100.00
65880;BME280;52661;51.364;6.054;2023-12-28T07:40:52;100831.41;;;10.25;100.00
65880;BME280;52661;51.364;6.054;2023-12-28T07:43:18;100835.69;;;10.29;100.00
65880;BME280;52661;51.364;6.054;2023-12-28T07:45:43;100839.97;;;10.30;100.00
65880;BME280;52661;51.364;6.054;2023-12-28T07:48:08;100843.44;;;10.31;100.00
65880;BME280;52661;51.364;6.054;2023-12-28T07:50:34;100838.78;;;10.31;100.00
65880;BME280;52661;51.364;6.054;2023-12-28T07:53:00;100842.25;;;10.28;100.00
65880;BME280;52661;51.364;6.054;2023-12-28T07:55:25;100838.41;;;10.29;100.00
65880;BME280;52661;51.364;6.054;2023-12-28T07:57:51;100839.56;;;10.28;100.00
65880;BME280;52661;51.364;6.054;2023-12-28T08:00:17;100842.66;;;10.27;100.00
65880;BME280;52661;51.364;6.054;2023-12-28T08:02:42;100851.94;;;10.22;100.00
65880;BME280;52661;51.364;6.054;2023-12-28T08:05:08;100856.59;;;10.25;100.00
65880;BME280;52661;51.364;6.054;2023-12-28T08:07:34;100850.41;;;10.28;100.00
65880;BME280;52661;51.364;6.054;2023-12-28T08:10:00;100862.81;;;10.26;100.00
65880;BME280;52661;51.364;6.054;2023-12-28T08:12:25;100860.84;;;10.23;100.00
65880;BME280;52661;51.364;6.054;2023-12-28T08:14:53;100850.38;;;10.25;100.00
65880;BME280;52661;51.364;6.054;2023-12-28T08:17:19;100855.78;;;10.18;100.00
65880;BME280;52661;51.364;6.054;2023-12-28T08:19:44;100853.09;;;10.21;100.00
65880;BME280;52661;51.364;6.054;2023-12-28T08:22:09;100863.16;;;10.21;100.00
65880;BME280;52661;51.364;6.054;2023-12-28T08:24:35;100861.22;;;10.18;100.00
65880;BME280;52661;51.364;6.054;2023-12-28T08:27:01;100863.16;;;10.21;100.00
65880;BME280;52661;51.364;6.054;2023-12-28T08:29:28;100870.13;;;10.18;100.00
65880;BME280;52661;51.364;6.054;2023-12-28T08:31:53;100865.88;;;10.21;100.00
65880;BME280;52661;51.364;6.054;2023-12-28T08:34:19;100867.06;;;10.23;100.00
65880;BME280;52661;51.364;6.054;2023-12-28T08:36:44;100865.50;;;10.26;100.00
65880;BME280;52661;51.364;6.054;2023-12-28T08:39:09;100872.09;;;10.28;100.00
65880;BME280;52661;51.364;6.054;2023-12-28T08:41:35;100879.44;;;10.24;100.00
65880;BME280;52661;51.364;6.054;2023-12-28T08:44:00;100865.56;;;10.36;100.00
65880;BME280;52661;51.364;6.054;2023-12-28T08:46:26;100865.13;;;10.27;100.00
65880;BME280;52661;51.364;6.054;2023-12-28T08:48:51;100853.94;;;10.40;100.00
65880;BME280;52661;51.364;6.054;2023-12-28T08:51:17;100878.31;;;10.32;100.00
65880;BME280;52661;51.364;6.054;2023-12-28T08:53:42;100867.88;;;10.34;100.00
65880;BME280;52661;51.364;6.054;2023-12-28T08:58:39;100874.84;;;10.39;100.00
65880;BME280;52661;51.364;6.054;2023-12-28T09:01:04;100882.63;;;10.44;100.00
65880;BME280;52661;51.364;6.054;2023-12-28T09:03:29;100891.56;;;10.45;100.00
65880;BME280;52661;51.364;6.054;2023-12-28T09:05:55;100884.19;;;10.45;100.00
65880;BME280;52661;51.364;6.054;2023-12-28T09:08:20;100896.22;;;10.51;100.00
65880;BME280;52661;51.364;6.054;2023-12-28T09:10:45;100890.78;;;10.51;100.00
65880;BME280;52661;51.364;6.054;2023-12-28T09:13:15;100899.72;;;10.55;100.00
65880;BME280;52661;51.364;6.054;2023-12-28T09:15:42;100888.09;;;10.55;100.00
65880;BME280;52661;51.364;6.054;2023-12-28T09:18:07;100893.91;;;10.60;100.00
65880;BME280;52661;51.364;6.054;2023-12-28T09:20:33;100884.25;;;10.66;100.00
65880;BME280;52661;51.364;6.054;2023-12-28T09:23:00;100885.03;;;10.74;100.00
65880;BME280;52661;51.364;6.054;2023-12-28T09:25:26;100886.97;;;10.73;100.00
65880;BME280;52661;51.364;6.054;2023-12-28T09:27:51;100895.50;;;10.79;100.00
65880;BME280;52661;51.364;6.054;2023-12-28T09:30:17;100905.59;;;10.82;100.00
65880;BME280;52661;51.364;6.054;2023-12-28T09:32:43;100913.00;;;10.81;100.00
65880;BME280;52661;51.364;6.054;2023-12-28T09:35:08;100921.13;;;10.85;100.00
65880;BME280;52661;51.364;6.054;2023-12-28T09:37:33;100913.00;;;10.85;100.00
65880;BME280;52661;51.364;6.054;2023-12-28T09:39:59;100921.13;;;10.85;100.00
65880;BME280;52661;51.364;6.054;2023-12-28T09:42:33;100918.44;;;10.85;100.00
65880;BME280;52661;51.364;6.054;2023-12-28T09:45:01;100924.59;;;10.85;100.00
65880;BME280;52661;51.364;6.054;2023-12-28T09:47:26;100930.44;;;10.84;100.00
65880;BME280;52661;51.364;6.054;2023-12-28T09:49:51;100928.09;;;10.86;100.00
65880;BME280;52661;51.364;6.054;2023-12-28T09:52:17;100923.06;;;10.84;100.00
65880;BME280;52661;51.364;6.054;2023-12-28T09:54:42;100917.25;;;10.86;100.00
65880;BME280;52661;51.364;6.054;2023-12-28T09:57:09;100916.09;;;10.83;100.00
65880;BME280;52661;51.364;6.054;2023-12-28T09:59:36;100921.13;;;10.85;100.00
65880;BME280;52661;51.364;6.054;2023-12-28T10:02:03;100923.88;;;10.89;100.00
65880;BME280;52661;51.364;6.054;2023-12-28T10:04:29;100910.66;;;10.87;100.00
65880;BME280;52661;51.364;6.054;2023-12-28T10:06:54;100913.75;;;10.89;100.00
65880;BME280;52661;51.364;6.054;2023-12-28T10:09:21;100907.56;;;10.92;100.00
65880;BME280;52661;51.364;6.054;2023-12-28T10:11:47;100918.44;;;10.96;100.00
65880;BME280;52661;51.364;6.054;2023-12-28T10:14:13;100925.41;;;10.97;100.00
65880;BME280;52661;51.364;6.054;2023-12-28T10:16:42;100930.06;;;10.96;100.00
65880;BME280;52661;51.364;6.054;2023-12-28T10:19:07;100925.41;;;10.97;100.00
65880;BME280;52661;51.364;6.054;2023-12-28T10:21:33;100924.63;;;11.00;100.00
65880;BME280;52661;51.364;6.054;2023-12-28T10:23:59;100927.75;;;10.98;100.00
65880;BME280;52661;51.364;6.054;2023-12-28T10:26:24;100912.63;;;11.04;100.00
65880;BME280;52661;51.364;6.054;2023-12-28T10:28:50;100931.63;;;11.04;100.00
65880;BME280;52661;51.364;6.054;2023-12-28T10:31:15;100921.16;;;11.06;100.00
65880;BME280;52661;51.364;6.054;2023-12-28T10:33:41;100920.00;;;11.07;100.00
65880;BME280;52661;51.364;6.054;2023-12-28T10:36:08;100927.75;;;11.09;100.00
65880;BME280;52661;51.364;6.054;2023-12-28T10:38:35;100927.38;;;11.10;100.00
65880;BME280;52661;51.364;6.054;2023-12-28T10:41:03;100929.69;;;11.08;100.00
65880;BME280;52661;51.364;6.054;2023-12-28T10:43:31;100921.97;;;11.14;100.00
65880;BME280;52661;51.364;6.054;2023-12-28T10:46:01;100928.53;;;11.09;100.00
65880;BME280;52661;51.364;6.054;2023-12-28T10:48:29;100923.88;;;11.06;100.00
65880;BME280;52661;51.364;6.054;2023-12-28T10:51:00;100918.47;;;11.10;100.00
65880;BME280;52661;51.364;6.054;2023-12-28T10:53:37;100922.72;;;11.07;100.00
65880;BME280;52661;51.364;6.054;2023-12-28T11:01:37;100915.34;;;11.04;100.00
65880;BME280;52661;51.364;6.054;2023-12-28T11:04:22;100911.47;;;11.05;100.00
65880;BME280;52661;51.364;6.054;2023-12-28T11:06:49;100903.69;;;11.07;100.00
65880;BME280;52661;51.364;6.054;2023-12-28T11:09:15;100902.53;;;11.05;100.00
65880;BME280;52661;51.364;6.054;2023-12-28T11:11:43;100899.44;;;11.06;100.00
65880;BME280;52661;51.364;6.054;2023-12-28T11:14:08;100905.25;;;11.08;100.00
65880;BME280;52661;51.364;6.054;2023-12-28T11:16:34;100894.38;;;11.08;100.00
65880;BME280;52661;51.364;6.054;2023-12-28T11:19:00;100896.31;;;11.11;100.00
65880;BME280;52661;51.364;6.054;2023-12-28T11:21:26;100896.72;;;11.13;100.00
65880;BME280;52661;51.364;6.054;2023-12-28T11:23:53;100901.75;;;11.11;100.00
65880;BME280;52661;51.364;6.054;2023-12-28T11:26:20;100912.25;;;11.13;100.00
65880;BME280;52661;51.364;6.054;2023-12-28T11:28:46;100904.09;;;11.16;100.00
65880;BME280;52661;51.364;6.054;2023-12-28T11:31:15;100889.38;;;11.17;100.00
65880;BME280;52661;51.364;6.054;2023-12-28T11:33:47;100888.97;;;11.19;100.00
65880;BME280;52661;51.364;6.054;2023-12-28T11:36:38;100896.31;;;11.22;100.00
65880;BME280;52661;51.364;6.054;2023-12-28T11:39:06;100898.66;;;11.23;100.00
65880;BME280;52661;51.364;6.054;2023-12-28T11:41:35;100885.09;;;11.30;100.00
65880;BME280;52661;51.364;6.054;2023-12-28T11:44:05;100883.16;;;11.27;100.00
65880;BME280;52661;51.364;6.054;2023-12-28T11:46:31;100882.38;;;11.30;100.00
65880;BME280;52661;51.364;6.054;2023-12-28T11:49:07;100871.50;;;11.30;100.00
65880;BME280;52661;51.364;6.054;2023-12-28T11:51:37;100873.84;;;11.28;100.00
65880;BME280;52661;51.364;6.054;2023-12-28T11:54:04;100883.94;;;11.28;100.00
65880;BME280;52661;51.364;6.054;2023-12-28T11:56:30;100861.41;;;11.31;100.00
65880;BME280;52661;51.364;6.054;2023-12-28T11:58:55;100859.06;;;11.33;100.00
65880;BME280;52661;51.364;6.054;2023-12-28T12:01:21;100864.50;;;11.33;100.00
65880;BME280;52661;51.364;6.054;2023-12-28T12:03:47;100864.50;;;11.36;100.00
65880;BME280;52661;51.364;6.054;2023-12-28T12:06:13;100858.69;;;11.38;100.00
65880;BME280;52661;51.364;6.054;2023-12-28T12:08:39;100859.06;;;11.36;100.00
65880;BME280;52661;51.364;6.054;2023-12-28T12:11:05;100856.75;;;11.39;100.00
65880;BME280;52661;51.364;6.054;2023-12-28T12:13:31;100850.91;;;11.36;100.00
65880;BME280;52661;51.364;6.054;2023-12-28T12:15:57;100843.53;;;11.37;100.00
65880;BME280;52661;51.364;6.054;2023-12-28T12:18:23;100838.88;;;11.38;100.00
65880;BME280;52661;51.364;6.054;2023-12-28T12:20:49;100843.53;;;11.41;100.00
65880;BME280;52661;51.364;6.054;2023-12-28T12:23:15;100850.13;;;11.40;100.00
65880;BME280;52661;51.364;6.054;2023-12-28T12:25:41;100833.44;;;11.38;100.00
65880;BME280;52661;51.364;6.054;2023-12-28T12:28:07;100831.88;;;11.36;100.00
65880;BME280;52661;51.364;6.054;2023-12-28T12:30:32;100834.59;;;11.33;100.00
65880;BME280;52661;51.364;6.054;2023-12-28T12:32:58;100826.06;;;11.34;100.00
65880;BME280;52661;51.364;6.054;2023-12-28T12:35:24;100835.00;;;11.35;100.00
65880;BME280;52661;51.364;6.054;2023-12-28T12:37:49;100833.44;;;11.34;100.00
65880;BME280;52661;51.364;6.054;2023-12-28T12:40:16;100843.16;;;11.31;100.00
65880;BME280;52661;51.364;6.054;2023-12-28T12:42:43;100824.53;;;11.30;100.00
65880;BME280;52661;51.364;6.054;2023-12-28T12:45:10;100825.69;;;11.29;100.00